createdAt,value
2019-05-30T00:01:36.192Z,11.43
2019-05-30T00:04:07.996Z,14.47
2019-05-30T00:06:39.427Z,12.40
2019-05-30T00:09:12.007Z,15.38
2019-05-30T00:11:43.439Z,17.65
2019-05-30T00:14:14.892Z,15.93
2019-05-30T00:16:46.524Z,9.68
2019-05-30T00:19:18.045Z,14.60
2019-05-30T00:21:49.623Z,15.83
2019-05-30T00:24:22.516Z,14.00
2019-05-30T00:26:54.063Z,12.23
2019-05-30T00:29:25.554Z,11.03
2019-05-30T00:31:57.469Z,10.40
2019-05-30T00:34:28.949Z,10.78
2019-05-30T00:37:00.265Z,15.53
2019-05-30T00:39:31.862Z,15.98
2019-05-30T00:42:04.113Z,12.45
2019-05-30T00:44:35.788Z,10.35
2019-05-30T00:47:07.258Z,10.90
2019-05-30T00:49:38.789Z,12.43
2019-05-30T00:52:10.592Z,10.67
2019-05-30T00:54:42.105Z,11.00
2019-05-30T00:57:13.893Z,10.93
2019-05-30T00:59:45.323Z,11.50
2019-05-30T01:02:16.781Z,9.83
2019-05-30T01:04:48.465Z,12.10
2019-05-30T01:07:20.011Z,11.53
2019-05-30T01:09:51.976Z,11.55
2019-05-30T01:12:23.423Z,13.35
2019-05-30T01:14:55.006Z,13.17
2019-05-30T01:17:26.544Z,12.63
2019-05-30T01:19:59.081Z,10.83
2019-05-30T01:22:30.910Z,11.12
2019-05-30T01:25:04.250Z,11.28
2019-05-30T01:27:35.382Z,12.10
2019-05-30T01:30:08.959Z,10.18
2019-05-30T01:32:40.512Z,10.82
2019-05-30T01:35:12.149Z,10.60
2019-05-30T01:37:43.539Z,10.60
2019-05-30T01:40:15.251Z,10.70
2019-05-30T01:42:46.865Z,11.78
2019-05-30T01:45:18.224Z,12.37
2019-05-30T01:47:49.730Z,10.53
2019-05-30T01:50:21.211Z,12.30
2019-05-30T01:52:52.931Z,10.13
2019-05-30T01:55:24.612Z,12.75
2019-05-30T01:57:56.089Z,10.90
2019-05-30T02:00:29.708Z,9.00
2019-05-30T02:03:01.217Z,11.20
2019-05-30T02:05:32.609Z,9.57
2019-05-30T02:08:05.096Z,10.00
2019-05-30T02:10:37.254Z,11.80
2019-05-30T02:13:09.809Z,11.18
2019-05-30T02:15:41.489Z,10.58
2019-05-30T02:18:12.952Z,13.07
2019-05-30T02:20:44.427Z,11.95
2019-05-30T02:23:16.036Z,12.07
2019-05-30T02:25:47.402Z,10.43
2019-05-30T02:28:20.419Z,10.90
2019-05-30T02:30:52.862Z,12.47
2019-05-30T02:33:24.378Z,10.88
2019-05-30T02:35:55.948Z,10.80
2019-05-30T02:38:27.953Z,10.95
2019-05-30T02:41:01.122Z,10.78
2019-05-30T02:43:32.346Z,9.38
2019-05-30T02:46:05.992Z,9.30
2019-05-30T02:48:54.756Z,10.15
2019-05-30T02:51:10.710Z,9.85
2019-05-30T02:53:42.701Z,10.40
2019-05-30T02:56:14.342Z,9.35
2019-05-30T02:58:45.787Z,8.85
2019-05-30T03:01:17.787Z,8.33
2019-05-30T03:03:49.669Z,9.75
2019-05-30T03:06:21.168Z,8.80
2019-05-30T03:08:52.727Z,9.13
2019-05-30T03:11:24.351Z,9.55
2019-05-30T03:13:55.817Z,8.93
2019-05-30T03:16:27.353Z,8.43
2019-05-30T03:18:59.304Z,12.78
2019-05-30T03:21:30.749Z,9.35
2019-05-30T03:24:02.812Z,12.63
2019-05-30T03:26:36.720Z,11.05
2019-05-30T03:29:09.989Z,11.12
2019-05-30T03:31:40.882Z,8.05
2019-05-30T03:34:22.779Z,8.10
2019-05-30T03:36:45.365Z,8.48
2019-05-30T03:39:16.931Z,10.03
2019-05-30T03:41:48.493Z,8.90
2019-05-30T03:44:19.940Z,6.70
2019-05-30T03:46:53.345Z,6.63
2019-05-30T03:49:27.592Z,7.20
2019-05-30T03:51:59.892Z,10.43
2019-05-30T03:54:31.460Z,8.25
2019-05-30T03:57:06.805Z,8.05
2019-05-30T03:59:40.146Z,7.67
2019-05-30T04:02:15.560Z,7.85
2019-05-30T04:08:26.791Z,8.28
2019-05-30T04:10:58.452Z,6.85
2019-05-30T04:13:32.278Z,6.85
2019-05-30T04:16:03.753Z,6.97
2019-05-30T04:18:35.247Z,8.18
2019-05-30T04:21:08.381Z,7.97
2019-05-30T04:23:39.489Z,6.72
2019-05-30T04:26:13.460Z,7.35
2019-05-30T04:28:44.830Z,7.17
2019-05-30T04:31:17.252Z,6.80
2019-05-30T04:33:49.052Z,7.90
2019-05-30T04:36:20.591Z,7.30
2019-05-30T04:38:52.021Z,9.28
2019-05-30T04:41:24.530Z,8.43
2019-05-30T04:43:56.078Z,8.90
2019-05-30T04:46:27.585Z,7.42
2019-05-30T04:48:59.369Z,8.35
2019-05-30T04:51:31.011Z,5.53
2019-05-30T04:54:02.829Z,6.00
2019-05-30T04:56:34.571Z,6.97
2019-05-30T04:59:06.187Z,5.42
2019-05-30T05:01:37.825Z,8.40
2019-05-30T05:04:09.238Z,5.53
2019-05-30T05:06:40.712Z,5.75
2019-05-30T05:09:13.787Z,8.15
2019-05-30T05:11:45.149Z,11.83
2019-05-30T05:14:18.345Z,7.58
2019-05-30T05:16:50.249Z,9.73
2019-05-30T05:21:54.082Z,7.67
2019-05-30T05:26:56.172Z,5.17
2019-05-30T05:29:27.706Z,6.65
2019-05-30T05:31:59.292Z,6.00
2019-05-30T05:34:31.337Z,6.00
2019-05-30T05:39:33.537Z,7.12
2019-05-30T05:42:04.994Z,7.85
2019-05-30T05:44:36.479Z,8.53
2019-05-30T05:47:08.117Z,7.85
2019-05-30T05:49:39.615Z,9.83
2019-05-30T05:52:12.145Z,7.15
2019-05-30T05:54:43.777Z,6.42
2019-05-30T05:57:16.667Z,7.95
2019-05-30T05:59:52.346Z,7.40
2019-05-30T06:02:25.176Z,7.97
2019-05-30T06:04:56.561Z,8.00
2019-05-30T06:07:28.584Z,7.03
2019-05-30T06:12:30.337Z,7.70
2019-05-30T06:15:02.497Z,7.40
2019-05-30T06:17:34.226Z,6.83
2019-05-30T06:20:07.264Z,6.25
2019-05-30T06:22:38.857Z,6.72
2019-05-30T06:25:10.306Z,7.95
2019-05-30T06:27:42.126Z,7.58
2019-05-30T06:30:14.040Z,6.78
2019-05-30T06:32:45.538Z,7.47
2019-05-30T06:35:17.038Z,6.22
2019-05-30T06:37:48.750Z,5.92
2019-05-30T06:40:21.272Z,5.22
2019-05-30T06:42:52.934Z,5.17
2019-05-30T06:45:25.598Z,7.55
2019-05-30T06:47:57.602Z,6.12
2019-05-30T06:50:29.383Z,7.85
2019-05-30T06:53:00.866Z,8.85
2019-05-30T06:55:32.527Z,7.65
2019-05-30T06:58:03.912Z,8.28
2019-05-30T07:00:35.511Z,7.27
2019-05-30T07:03:07.234Z,4.28
2019-05-30T07:05:39.288Z,3.47
2019-05-30T07:08:30.903Z,4.17
2019-05-30T07:11:02.458Z,6.10
2019-05-30T07:13:34.232Z,4.42
2019-05-30T07:16:05.724Z,3.37
2019-05-30T07:18:37.416Z,4.55
2019-05-30T07:21:08.957Z,2.92
2019-05-30T07:23:40.313Z,1.90
2019-05-30T07:26:12.023Z,4.70
2019-05-30T07:28:43.590Z,2.50
2019-05-30T07:31:15.060Z,2.80
2019-05-30T07:33:46.626Z,2.83
2019-05-30T07:36:18.277Z,2.90
2019-05-30T07:38:49.715Z,2.80
2019-05-30T07:41:21.469Z,5.62
2019-05-30T07:43:53.051Z,4.45
2019-05-30T07:46:24.772Z,7.83
2019-05-30T07:48:56.305Z,4.08
2019-05-30T07:51:28.475Z,4.17
2019-05-30T07:56:31.019Z,4.50
2019-05-30T08:01:32.673Z,3.92
2019-05-30T08:04:04.225Z,5.22
2019-05-30T08:06:35.855Z,7.30
2019-05-30T08:09:08.415Z,8.50
2019-05-30T08:11:39.949Z,3.80
2019-05-30T08:14:11.592Z,5.70
2019-05-30T08:16:43.165Z,5.85
2019-05-30T08:19:14.618Z,3.77
2019-05-30T08:21:46.150Z,4.30
2019-05-30T08:24:17.599Z,4.97
2019-05-30T08:26:49.146Z,4.67
2019-05-30T08:29:20.664Z,3.47
2019-05-30T08:31:52.109Z,3.40
2019-05-30T08:34:23.655Z,5.95
2019-05-30T08:36:55.152Z,5.78
2019-05-30T08:39:26.581Z,6.15
2019-05-30T08:41:58.214Z,3.33
2019-05-30T08:44:29.634Z,3.55
2019-05-30T08:47:01.289Z,4.05
2019-05-30T08:49:33.957Z,4.50
2019-05-30T08:52:05.724Z,3.35
2019-05-30T08:54:38.438Z,4.85
2019-05-30T08:57:10.062Z,3.05
2019-05-30T08:59:44.663Z,4.12
2019-05-30T09:02:14.666Z,3.22
2019-05-30T09:04:46.306Z,6.45
2019-05-30T09:07:17.776Z,4.60
2019-05-30T09:09:49.374Z,4.45
2019-05-30T09:12:21.101Z,3.80
2019-05-30T09:14:55.751Z,3.35
2019-05-30T09:17:27.253Z,3.92
2019-05-30T09:19:58.741Z,5.37
2019-05-30T09:22:30.285Z,4.62
2019-05-30T09:25:01.796Z,7.37
2019-05-30T09:27:33.384Z,4.62
2019-05-30T09:30:06.310Z,4.33
2019-05-30T09:32:39.565Z,5.53
2019-05-30T09:35:11.956Z,4.53
2019-05-30T09:37:44.141Z,5.03
2019-05-30T09:40:16.642Z,6.08
2019-05-30T09:42:48.703Z,6.03
2019-05-30T09:45:21.118Z,7.25
2019-05-30T09:47:52.703Z,5.08
2019-05-30T09:50:24.189Z,4.72
2019-05-30T09:52:55.792Z,5.58
2019-05-30T09:55:27.392Z,5.12
2019-05-30T09:57:59.038Z,7.72
2019-05-30T10:00:31.962Z,7.92
2019-05-30T10:03:04.404Z,9.13
2019-05-30T10:05:36.427Z,7.72
2019-05-30T10:08:08.539Z,5.67
2019-05-30T10:13:10.922Z,8.13
2019-05-30T10:15:44.023Z,6.10
2019-05-30T10:18:17.180Z,5.37
2019-05-30T10:20:49.447Z,4.58
2019-05-30T10:23:21.748Z,6.03
2019-05-30T10:25:53.532Z,3.62
2019-05-30T10:28:25.399Z,4.35
2019-05-30T10:30:59.377Z,6.95
2019-05-30T10:33:30.266Z,3.60
2019-05-30T10:36:01.819Z,7.37
2019-05-30T10:38:33.566Z,3.87
2019-05-30T10:44:46.235Z,3.85
2019-05-30T10:47:19.116Z,4.58
2019-05-30T10:49:51.750Z,5.40
2019-05-30T10:52:23.417Z,8.78
2019-05-30T10:54:55.637Z,5.05
2019-05-30T10:57:27.128Z,5.15
2019-05-30T10:59:58.660Z,10.30
2019-05-30T11:02:30.742Z,5.70
2019-05-30T11:05:02.222Z,8.63
2019-05-30T11:07:35.957Z,12.98
2019-05-30T11:10:09.623Z,6.62
2019-05-30T11:12:41.257Z,7.65
2019-05-30T11:15:13.779Z,6.33
2019-05-30T11:17:45.289Z,5.78
2019-05-30T11:20:16.898Z,9.38
2019-05-30T11:22:48.415Z,5.75
2019-05-30T11:25:19.924Z,9.03
2019-05-30T11:27:52.620Z,6.22
2019-05-30T11:30:24.301Z,4.42
2019-05-30T11:36:36.556Z,5.80
2019-05-30T11:39:09.514Z,8.28
2019-05-30T11:41:41.104Z,6.75
2019-05-30T11:44:12.561Z,8.65
2019-05-30T11:46:44.308Z,3.37
2019-05-30T11:49:15.858Z,3.50
2019-05-30T11:51:47.353Z,3.40
2019-05-30T11:54:18.857Z,5.08
2019-05-30T11:56:50.345Z,5.25
2019-05-30T11:59:21.911Z,1.87
2019-05-30T12:01:54.577Z,2.65
2019-05-30T12:04:26.382Z,2.02
2019-05-30T12:06:58.827Z,5.85
2019-05-30T12:09:30.492Z,3.02
2019-05-30T12:12:02.409Z,2.45
2019-05-30T12:14:33.925Z,4.47
2019-05-30T12:17:05.513Z,1.85
2019-05-30T12:19:37.052Z,4.40
2019-05-30T12:22:09.292Z,4.55
2019-05-30T12:27:11.539Z,5.53
2019-05-30T12:29:43.109Z,11.00
2019-05-30T12:32:14.803Z,2.45
2019-05-30T12:34:46.235Z,7.80
2019-05-30T12:37:18.808Z,3.53
2019-05-30T12:39:50.651Z,1.80
2019-05-30T12:42:22.182Z,6.85
2019-05-30T12:44:54.929Z,4.85
2019-05-30T12:47:26.930Z,3.85
2019-05-30T12:49:59.289Z,3.52
2019-05-30T12:52:31.063Z,8.38
2019-05-30T12:55:03.191Z,2.98
2019-05-30T13:00:16.859Z,3.27
2019-05-30T13:02:42.237Z,5.03
2019-05-30T13:05:32.622Z,8.50
2019-05-30T13:08:17.558Z,5.42
2019-05-30T13:10:37.697Z,5.80
2019-05-30T13:13:09.525Z,3.67
2019-05-30T13:15:48.315Z,3.08
2019-05-30T13:18:19.892Z,5.72
2019-05-30T13:20:51.349Z,4.35
2019-05-30T13:23:23.474Z,4.13
2019-05-30T13:25:55.489Z,3.45
2019-05-30T13:28:26.899Z,4.42
2019-05-30T13:30:58.565Z,8.27
2019-05-30T13:33:30.583Z,4.33
2019-05-30T13:36:03.019Z,5.83
2019-05-30T13:38:35.527Z,4.85
2019-05-30T13:41:08.557Z,7.62
2019-05-30T13:43:40.240Z,2.80
2019-05-30T13:46:11.870Z,4.20
2019-05-30T13:48:43.328Z,3.40
2019-05-30T13:51:14.857Z,6.50
2019-05-30T13:53:46.412Z,7.17
2019-05-30T13:56:19.199Z,6.43
2019-05-30T13:58:50.657Z,7.42
2019-05-30T14:01:22.143Z,4.90
2019-05-30T14:03:54.827Z,4.70
2019-05-30T14:06:26.308Z,2.98
2019-05-30T14:08:57.735Z,5.33
2019-05-30T14:11:29.317Z,7.60
2019-05-30T14:14:02.642Z,5.70
2019-05-30T14:16:34.679Z,5.75
2019-05-30T14:19:09.335Z,8.15
2019-05-30T14:21:39.085Z,7.90
2019-05-30T14:24:11.523Z,10.55
2019-05-30T14:26:43.535Z,9.53
2019-05-30T14:29:15.035Z,8.20
2019-05-30T14:31:47.190Z,5.83
2019-05-30T14:34:19.102Z,6.30
2019-05-30T14:36:51.015Z,4.17
2019-05-30T14:39:22.954Z,4.87
2019-05-30T14:41:54.765Z,6.40
2019-05-30T14:44:26.633Z,9.25
2019-05-30T14:46:58.458Z,7.12
2019-05-30T14:49:30.934Z,5.67
2019-05-30T14:52:02.790Z,7.90
2019-05-30T14:54:34.610Z,7.42
2019-05-30T14:57:08.816Z,11.28
2019-05-30T14:59:40.616Z,7.35
2019-05-30T15:02:13.250Z,7.22
2019-05-30T15:04:44.805Z,7.97
2019-05-30T15:07:16.419Z,10.20
2019-05-30T15:09:47.807Z,9.43
2019-05-30T15:12:19.374Z,11.13
2019-05-30T15:14:50.896Z,9.13
2019-05-30T15:17:22.491Z,10.40
2019-05-30T15:19:53.953Z,7.42
2019-05-30T15:22:25.533Z,5.33
2019-05-30T15:24:57.104Z,7.85
2019-05-30T15:27:28.602Z,6.12
2019-05-30T15:29:59.970Z,8.17
2019-05-30T15:32:31.297Z,9.13
2019-05-30T15:35:02.809Z,8.30
2019-05-30T15:37:34.471Z,9.53
2019-05-30T15:40:08.953Z,10.32
2019-05-30T15:42:41.068Z,7.92
2019-05-30T15:45:13.904Z,8.65
2019-05-30T15:47:45.532Z,9.35
2019-05-30T15:50:18.668Z,7.83
2019-05-30T15:52:50.463Z,8.38
2019-05-30T15:55:23.253Z,8.10
2019-05-30T15:57:54.830Z,9.15
2019-05-30T16:00:26.416Z,7.67
2019-05-30T16:02:58.012Z,15.43
2019-05-30T16:05:29.686Z,7.80
2019-05-30T16:08:01.052Z,6.10
2019-05-30T16:10:33.057Z,7.00
2019-05-30T16:13:04.564Z,8.03
2019-05-30T16:15:36.530Z,10.97
2019-05-30T16:18:08.085Z,7.47
2019-05-30T16:20:39.684Z,7.17
2019-05-30T16:23:12.514Z,6.50
2019-05-30T16:25:44.239Z,10.63
2019-05-30T16:28:17.754Z,5.57
2019-05-30T16:30:49.389Z,7.37
2019-05-30T16:33:22.141Z,6.30
2019-05-30T16:35:53.657Z,7.17
2019-05-30T16:38:25.032Z,7.83
2019-05-30T16:40:56.416Z,7.60
2019-05-30T16:43:27.997Z,6.10
2019-05-30T16:45:59.349Z,7.92
2019-05-30T16:48:30.891Z,4.60
2019-05-30T16:51:02.733Z,5.43
2019-05-30T16:53:34.247Z,4.83
2019-05-30T16:56:05.716Z,8.23
2019-05-30T16:58:37.251Z,6.63
2019-05-30T17:01:08.644Z,7.40
2019-05-30T17:03:40.115Z,8.85
2019-05-30T17:06:11.819Z,8.83
2019-05-30T17:08:43.386Z,7.53
2019-05-30T17:11:15.313Z,6.17
2019-05-30T17:13:47.211Z,8.65
2019-05-30T17:16:20.048Z,6.95
2019-05-30T17:18:51.885Z,9.83
2019-05-30T17:21:24.655Z,6.53
2019-05-30T17:23:56.341Z,8.68
2019-05-30T17:26:28.365Z,5.33
2019-05-30T17:28:59.931Z,7.75
2019-05-30T17:31:31.500Z,6.87
2019-05-30T17:34:02.997Z,9.58
2019-05-30T17:36:34.512Z,5.97
2019-05-30T17:39:07.038Z,4.97
2019-05-30T17:41:38.607Z,9.18
2019-05-30T17:44:10.166Z,11.88
2019-05-30T17:46:41.637Z,5.20
2019-05-30T17:49:13.457Z,5.77
2019-05-30T17:51:44.969Z,9.88
2019-05-30T17:54:17.905Z,7.37
2019-05-30T17:56:49.442Z,5.72
2019-05-30T17:59:22.258Z,6.95
2019-05-30T18:01:53.701Z,6.90
2019-05-30T18:04:25.100Z,5.90
2019-05-30T18:06:56.779Z,6.77
2019-05-30T18:09:29.118Z,5.17
2019-05-30T18:12:01.172Z,8.70
2019-05-30T18:14:32.758Z,9.30
2019-05-30T18:17:04.187Z,6.78
2019-05-30T18:19:35.738Z,12.27
2019-05-30T18:22:07.300Z,7.75
2019-05-30T18:24:39.200Z,10.50
2019-05-30T18:27:10.715Z,8.18
2019-05-30T18:29:42.114Z,5.20
2019-05-30T18:32:13.549Z,9.77
2019-05-30T18:34:45.017Z,8.77
2019-05-30T18:37:16.691Z,9.70
2019-05-30T18:39:48.641Z,8.20
2019-05-30T18:42:20.867Z,10.05
2019-05-30T18:44:52.304Z,14.65
2019-05-30T23:43:35.634Z,16.20
2019-05-30T23:46:07.225Z,13.23
2019-05-30T23:48:38.690Z,9.83
2019-05-30T23:51:12.214Z,11.30
2019-05-30T23:53:43.656Z,10.15
2019-05-30T23:56:14.908Z,14.20
2019-05-30T23:58:50.555Z,10.43
